Terminal Aerodrome Forecast
Issued by NWS Portland, OR

Home | Current Version | Previous Version | Text Only | Print | Product List | Glossary On
Versions: 1 2 3 4 5 6 7 8 9 10 11 12 13 14 15 16 17 18 19 20 21 22 23 24 25 26 27 28 29 30 31 32 33
000
FTUS46 KPQR 282330
TAFSLE
TAF
KSLE 282330Z 2900/2924 20007KT P6SM -SHRA SCT025 BKN045 BKN060
     FM290400 22005KT P6SM -SHRA BKN025 OVC045
     FM291200 36004KT P6SM -SHRASN BKN025 BKN040
     FM291800 02010KT P6SM VCSH SCT025 BKN045
     FM292100 03014KT P6SM SCT045=

USA.gov is the U.S. government's official web portal to all federal, state and local government web resources and services.